• Join FlightAware (Why Join?)
  • Login
  • US Flag 
11:28PM EST


 

Airport Tracker/Info


-or-


 

Live Flight TrackerFlight Track Log ✈ TCF3494 ✈ 24-Apr-2013 ✈ KLGA - KORD

Flight Track Log - Related Links

Times and Time Zones

All times are in EDT time to prevent confusion due to time zone crossing. See the TCF3494 flight status page for this flight to view local times or setup timezone preferences in your user account.

Time Position Orientation Groundspeed Altitude Reporting Facility
EDT Latitude Longitude Course Direction KTS MPH feet Rate Location/Type
07:32PM 40.7667 -73.8333 57° Northeast 147 169 1,400  Level New York TRACON
07:33PM 40.8000 -73.7667 57° Northeast 262 302 3,100 2,280 Climbing New York TRACON
07:34PM 40.8500 -73.8333 315° West 269 310 6,000 3,300 Climbing New York TRACON
07:35PM 40.9167 -73.9000 323° Northwest 272 313 9,700 3,000 Climbing New York TRACON
07:36PM 40.9500 -73.9833 298° West 284 327 12,100 2,400 Climbing New York TRACON
07:37PM 40.9833 -74.0833 294° West 292 336 14,600 1,500 Climbing New York TRACON
07:38PM 41.0167 -74.1833 294° West 320 368 15,100 480 Climbing New York TRACON
07:40PM 41.1806 -74.2750 337° Northwest 377 434 16,000 300 Climbing New York Center
07:41PM 41.1922 -74.3692 279° West 273 314 16,000  Level New York Center
07:42PM 41.1742 -74.4839 258° West 256 295 16,000  Level New York Center
07:43PM 41.1564 -74.5794 256° West 283 326 16,000  Level New York Center
07:44PM 41.1461 -74.7028 264° West 307 353 16,000 360 Level New York Center
07:45PM 41.1864 -74.8044 298° West 314 361 16,800 1,500 Climbing New York Center
07:46PM 41.2344 -74.9203 299° West 353 406 19,100 2,100 Climbing New York Center
07:47PM 41.2864 -75.0394 300° West 364 419 21,100 1,980 Climbing New York Center
07:48PM 41.3383 -75.1617 300° West 370 426 23,100 1,920 Climbing New York Center
07:49PM 41.3919 -75.2869 300° West 375 432 24,900 1,440 Climbing New York Center
07:50PM 41.4453 -75.4122 300° West 380 437 26,100 1,080 Climbing New York Center
07:51PM 41.4942 -75.5486 296° West 392 451 27,200 1,140 Climbing New York Center
07:52PM 41.5342 -75.6872 291° West 398 458 28,400 1,380 Climbing New York Center
07:53PM 41.5742 -75.8289 291° West 403 464 30,000 780 Climbing New York Center
07:54PM 41.6119 -75.9619 291° West 397 457 30,000  Level New York Center
07:55PM 41.6519 -76.0983 291° West 392 451 30,000  Level New York Center
07:56PM 41.6917 -76.2319 292° West 397 457 30,000  Level New York Center
07:57PM 41.7289 -76.3714 290° West 397 457 30,000  Level New York Center
07:58PM 41.7639 -76.5078 289° West 397 457 30,000  Level New York Center
07:59PM 41.8031 -76.6447 291° West 397 457 30,000  Level New York Center
08:00PM 41.8400 -76.7789 290° West 397 457 30,000  Level New York Center
08:01PM 41.8767 -76.9186 289° West 397 457 30,000  Level New York Center
08:02PM 41.9153 -77.0561 291° West 397 457 30,000  Level New York Center
08:03PM 41.9653 -77.2319 291° West 399 459 30,000  Level Cleveland Center
08:04PM 42.0028 -77.3725 290° West 394 453 30,000  Level Cleveland Center
08:05PM 42.0378 -77.5078 289° West 394 453 30,000  Level Cleveland Center
08:06PM 42.0725 -77.6403 289° West 389 448 30,000  Level Cleveland Center
08:07PM 42.1092 -77.7703 291° West 383 441 30,000  Level Cleveland Center
08:08PM 42.1456 -77.9058 290° West 383 441 30,000  Level Cleveland Center
08:09PM 42.1778 -78.0417 288° West 383 441 30,000  Level Cleveland Center
08:10PM 42.2164 -78.1775 291° West 383 441 30,000  Level Cleveland Center
08:11PM 42.2506 -78.3194 288° West 388 447 30,000  Level Cleveland Center
08:12PM 42.2864 -78.4586 289° West 388 447 30,000  Level Cleveland Center
08:13PM 42.3222 -78.5978 289° West 394 453 30,000  Level Cleveland Center
08:14PM 42.3558 -78.7372 288° West 394 453 30,000  Level Cleveland Center
08:15PM 42.3914 -78.8739 289° West 394 453 30,000  Level Cleveland Center
08:16PM 42.4222 -78.9969 289° West 394 453 30,000  Level Cleveland Center
08:17PM 42.4617 -79.1478 290° West 394 453 30,000  Level Cleveland Center
08:18PM 42.4906 -79.2853 286° West 389 448 30,000  Level Cleveland Center
08:19PM 42.4981 -79.4231 274° West 371 427 30,000  Level Cleveland Center
08:20PM 42.5058 -79.5608 274° West 371 427 30,000  Level Cleveland Center
08:21PM 42.5150 -79.6733 276° West 371 427 30,000  Level Cleveland Center
08:22PM 42.5203 -79.8394 273° West 366 421 30,000  Level Cleveland Center
08:23PM 42.5317 -79.9831 276° West 374 430 30,000  Level Cleveland Center
08:24PM 42.5303 -80.1267 269° West 380 437 30,000 60 Level Cleveland Center
08:25PM 42.5347 -80.2703 272° West 386 444 30,200  Climbing Cleveland Center
08:26PM 42.5456 -80.4169 276° West 380 437 30,000 -120 Descending Cleveland Center
08:27PM 42.5497 -80.5550 272° West 388 447 30,000  Level Cleveland Center
08:28PM 42.5539 -80.7017 272° West 386 444 30,000  Level Cleveland Center
08:29PM 42.5600 -80.8397 273° West 370 426 30,000  Level Cleveland Center
08:30PM 42.5636 -80.9864 272° West 382 440 30,000  Level Cleveland Center
08:31PM 42.5694 -81.1272 273° West 381 438 30,000  Level Cleveland Center
08:32PM 42.5747 -81.2739 273° West 381 438 30,000  Level Cleveland Center
08:33PM 42.5781 -81.4036 272° West 386 444 30,000  Level Cleveland Center
08:34PM 42.5978 -81.5450 281° West 378 435 30,000  Level Cleveland Center
08:35PM 42.6719 -81.6619 311° West 382 440 30,000  Level Cleveland Center
08:36PM 42.7689 -81.7681 321° Northwest 422 486 30,000  Level Cleveland Center
08:37PM 42.8467 -81.8800 313° West 422 486 30,000  Level Cleveland Center
08:38PM 42.9225 -82.0008 311° West 422 486 30,000  Level Cleveland Center
08:39PM 42.9981 -82.1189 311° West 416 479 30,000  Level Cleveland Center
08:40PM 43.0756 -82.2403 311° West 416 479 30,000  Level Cleveland Center
08:41PM 43.1511 -82.3561 312° West 411 473 30,000  Level Cleveland Center
08:42PM 43.2156 -82.4803 305° West 411 473 30,000  Level Cleveland Center
08:43PM 43.2092 -82.6197 266° West 357 411 30,000 -300 Level Cleveland Center
08:44PM 43.1817 -82.7583 255° West 357 411 29,500 -840 Descending Cleveland Center
08:45PM 43.1500 -82.8911 252° West 362 417 28,400 -780 Descending Cleveland Center
08:46PM 43.1222 -83.0236 254° West 367 422 28,000 -240 Descending Cleveland Center
08:47PM 43.0944 -83.1533 254° West 367 422 28,000  Level Cleveland Center
08:48PM 43.0664 -83.2831 254° West 361 415 28,000  Level Cleveland Center
08:49PM 43.0381 -83.4181 254° West 361 415 28,000  Level Cleveland Center
08:50PM 43.0075 -83.5586 253° West 373 429 28,000  Level Cleveland Center
08:51PM 42.9744 -83.7019 253° West 385 443 28,000  Level Cleveland Center
08:52PM 42.9561 -83.8428 260° West 390 449 28,000  Level Cleveland Center
08:53PM 42.9389 -84.0036 262° West 398 458 28,000  Level Cleveland Center
08:54PM 42.9261 -84.1503 263° West 398 458 28,000  Level Cleveland Center
08:55PM 42.9111 -84.2969 262° West 398 458 28,000  Level Cleveland Center
08:56PM 42.8964 -84.4294 261° West 398 458 28,000  Level Cleveland Center
08:57PM 42.8911 -84.5150 265° West 393 452 28,000  Level Chicago Center
08:58PM 42.8764 -84.6592 262° West 386 444 28,000  Level Chicago Center
08:59PM 42.8614 -84.8056 262° West 389 448 28,000  Level Chicago Center
09:00PM 42.8456 -84.9514 262° West 390 449 28,000  Level Chicago Center
09:01PM 42.8303 -85.0975 262° West 392 451 28,000  Level Chicago Center
09:02PM 42.8114 -85.2714 262° West 387 445 28,000  Level Chicago Center
09:03PM 42.7942 -85.4206 261° West 394 453 28,000  Level Chicago Center
09:04PM 42.7736 -85.5719 260° West 405 466 28,000 -60 Level Chicago Center
09:05PM 42.7467 -85.7222 256° West 406 467 27,900 -1,080 Descending Chicago Center
09:06PM 42.7194 -85.8689 256° West 400 460 25,800 -2,040 Descending Chicago Center
09:07PM 42.6936 -86.0119 256° West 389 448 23,800 -1,980 Descending Chicago Center
09:08PM 42.6681 -86.1503 256° West 379 436 21,800 -1,860 Descending Chicago Center
09:09PM 42.6436 -86.2836 256° West 368 423 20,000 -1,080 Descending Chicago Center
09:10PM 42.6153 -86.4347 256° West 346 398 19,600 -1,020 Descending Chicago Center
09:11PM 42.5933 -86.5481 255° West 316 364 18,000 -1,620 Descending Chicago Center
09:12PM 42.5711 -86.6639 255° West 316 364 16,400 -1,560 Descending Chicago Center
09:13PM 42.5478 -86.7772 254° West 314 361 14,800 -1,500 Descending Chicago Center
09:14PM 42.5189 -86.8811 249° West 295 339 13,300 -1,380 Descending Chicago Center
09:15PM 42.4933 -86.9761 250° West 271 312 12,000 -1,380 Descending Chicago Center
09:16PM 42.4661 -87.0686 248° West 265 305 10,500 -1,020 Descending Chicago Center
09:17PM 42.4353 -87.1806 250° West 265 305 10,000 -540 Descending Chicago Center
09:18PM 42.3914 -87.2594 233° Southwest 279 321 9,500 -540 Descending Chicago Center
09:19PM 42.3250 -87.3125 211° Southwest 278 320 9,000 -480 Descending Chicago Center
09:20PM 42.2611 -87.3617 210° Southwest 241 277 8,600 -720 Descending Chicago Center
09:21PM 42.2075 -87.4053 211° Southwest 228 262 7,600 -840 Descending Chicago Center
09:22PM 42.1561 -87.4486 212° Southwest 220 253 6,900 -900 Descending Chicago Center
09:24PM 42.1000 -87.4833 205° Southwest 183 211 5,700 -1,200 Descending Chicago TRACON
09:25PM 42.0667 -87.5167 217° Southwest 173 199 4,500 -900 Descending Chicago TRACON
09:26PM 42.0333 -87.5667 228° Southwest 166 191 4,100 -240 Descending Chicago TRACON
09:27PM 42.0167 -87.6167 246° West 158 182 4,100 -120 Level Chicago TRACON
09:28PM 42.0000 -87.6833 251° West 150 173 3,900 -180 Descending Chicago TRACON